Portada
METAR-TAF:

METAR-TAF

Aeroports :

San Salvador, El Salvador

latitud: 13-42N, longitud: 089-07W, altitud: 616 m

Observació

L'informe es va fer fa 1 hora i 36 minuts, a les 20:50 UTC
Vent 7 kt del Nord/Nord-Est
Temperatura 32°C
Humitat 38%
Pressió 1013 hPa
Visibilitat 10 km o més
Núvols disperses a una alçada de 3000 ft

METAR: MSSS 262050Z 03007KT 9999 SCT030 32/16 Q1013 A2991

Hora: 16:26 (22:26 UTC)

Pronòstic

L'informe es va fer fa 7 hores i 1 minuts, a les 15:25 UTC
Pronòstic vàlid del 26 a les 18 UTC al 27 a les 18 UTC
Vent 10 kt del Nord
Visibilitat 10 km o més
Escasses núvols a una alçada de 5000 ft
A partir de les 27 a les 0000 UTC
Vent 8 kt del Nord
Visibilitat 10 km o més
sense núvols per sota de 1500 mi sense presència de cumulonimbus.

TAF: MSSS 261525Z 2618/2718 35010KT 9999 FEW050 TX31/2619Z TN17/2712Z FM270000 35008KT CAVOK

Observacions i pronòstics meteorològics de més de 4000 aeroports (METAR i TAF).

Les estacions disponibles són els punts grocs i vermells al mapa.

Posi el ratolí al punt desitjat per veure el nom de l'estació.

Feu clic per veure les observacions i els pronòstics meteorològics.

Per canviar el mapa: feu clic els botons verds amb una creu de color negre per apropar; al botó verd amb un guió per allunyar la imatge; o en les fletxes verdes per a mapes adjacents.


METAR-TAF: